Time;durP1;ratioP1;P1;durP2;ratioP2;P2;SDS_P1;SDS_P2;PMS_P1;PMS_P2;Temp;Humidity;BMP_temperature;BMP_pressure;BME280_temperature;BME280_humidity;BME280_pressure;Samples;Min_cycle;Max_cycle;Signal;HPM_P1;HPM_P2
2023/02/06 00:00:37;;;;;;;6.57;6.03;;;;;;;2.89;89.83;96977.59;5063732;28;20029;-69
2023/02/06 00:03:03;;;;;;;6.55;5.93;;;;;;;2.88;89.73;96980.25;5062052;28;20033;-69
2023/02/06 00:05:28;;;;;;;5.78;5.38;;;;;;;2.93;88.17;96986.09;5063435;28;20019;-69
2023/02/06 00:07:53;;;;;;;6.80;6.20;;;;;;;2.83;89.77;96986.47;5067676;28;20032;-69
2023/02/06 00:10:19;;;;;;;8.18;7.38;;;;;;;2.63;90.86;96974.25;5059763;28;20058;-69
2023/02/06 00:12:44;;;;;;;7.28;6.68;;;;;;;2.57;91.53;96975.38;5074488;28;20036;-61
2023/02/06 00:15:09;;;;;;;7.53;6.72;;;;;;;2.56;91.29;96973.69;5061882;28;20021;-71
2023/02/06 00:17:38;;;;;;;8.23;7.43;;;;;;;2.42;91.68;96973.38;5057809;28;20140;-61
2023/02/06 00:20:06;;;;;;;9.73;8.38;;;;;;;2.38;92.04;96964.00;5063634;28;20028;-61
2023/02/06 00:22:31;;;;;;;11.52;10.23;;;;;;;2.37;91.57;96957.94;5066424;28;20039;-62
2023/02/06 00:24:57;;;;;;;9.77;8.80;;;;;;;2.40;92.04;96959.59;5057058;28;20036;-61
2023/02/06 00:27:22;;;;;;;6.75;6.25;;;;;;;2.36;91.66;96955.44;5068547;28;20035;-61
2023/02/06 00:29:48;;;;;;;7.20;6.65;;;;;;;2.27;92.40;96960.06;5062898;28;20052;-61
2023/02/06 00:32:13;;;;;;;8.20;6.97;;;;;;;2.12;92.87;96955.47;5064305;28;20395;-68
2023/02/06 00:34:38;;;;;;;10.75;9.68;;;;;;;2.00;94.30;96955.03;5062722;28;20062;-68
2023/02/06 00:37:04;;;;;;;7.57;6.97;;;;;;;1.95;93.92;96956.94;5059357;28;20027;-71
2023/02/06 00:39:29;;;;;;;8.30;7.53;;;;;;;1.88;94.03;96945.09;5069819;28;20402;-72
2023/02/06 00:41:54;;;;;;;9.60;8.60;;;;;;;1.81;95.29;96956.59;5058282;28;20020;-71
2023/02/06 00:44:21;;;;;;;7.70;7.00;;;;;;;1.83;95.57;96960.84;5065279;28;20485;-72
2023/02/06 00:46:46;;;;;;;10.57;7.93;;;;;;;1.66;95.77;96961.47;5073469;28;20036;-72
2023/02/06 00:49:12;;;;;;;8.35;7.65;;;;;;;1.59;96.08;96965.19;5058967;28;20031;-72
2023/02/06 00:51:38;;;;;;;9.70;8.70;;;;;;;1.65;96.51;96974.50;5057079;28;20040;-61
2023/02/06 00:54:04;;;;;;;9.43;8.10;;;;;;;1.57;97.26;96975.63;5064945;28;20071;-70
2023/02/06 00:56:29;;;;;;;8.18;7.57;;;;;;;1.53;98.04;96986.16;5054089;28;20091;-72
2023/02/06 00:58:54;;;;;;;8.20;7.43;;;;;;;1.56;98.71;96983.47;5067277;28;20033;-72
2023/02/06 01:01:20;;;;;;;8.95;8.15;;;;;;;1.51;99.83;96975.00;5060838;28;20028;-72
2023/02/06 01:03:45;;;;;;;7.85;7.15;;;;;;;1.50;99.48;96981.94;5059658;28;20029;-71
2023/02/06 01:06:10;;;;;;;7.60;6.90;;;;;;;1.49;100.00;96987.19;5060389;28;20109;-71
2023/02/06 01:08:36;;;;;;;7.75;7.03;;;;;;;1.42;100.00;96987.38;5066043;28;20067;-71
2023/02/06 01:11:08;;;;;;;7.70;7.10;;;;;;;1.41;100.00;96987.44;5064798;28;20478;-68
2023/02/06 01:13:33;;;;;;;7.85;7.22;;;;;;;1.39;100.00;96994.44;5062155;28;20068;-68
2023/02/06 01:15:59;;;;;;;7.82;7.22;;;;;;;1.37;100.00;96991.91;5054269;28;20424;-67
2023/02/06 01:18:24;;;;;;;6.78;6.18;;;;;;;1.40;100.00;96991.78;5061872;28;20020;-67
2023/02/06 01:20:49;;;;;;;6.90;6.40;;;;;;;1.37;100.00;96991.91;5058843;28;20033;-68
2023/02/06 01:23:15;;;;;;;7.60;6.97;;;;;;;1.41;99.67;96995.25;5055624;28;20074;-67
2023/02/06 01:25:40;;;;;;;16.50;13.90;;;;;;;1.42;99.78;96995.16;5066203;28;20021;-67
2023/02/06 01:28:05;;;;;;;14.27;12.82;;;;;;;1.43;99.60;96991.66;5061525;28;20025;-67
2023/02/06 01:30:31;;;;;;;11.90;10.75;;;;;;;1.45;99.97;96994.22;5052447;28;20033;-65
2023/02/06 01:32:56;;;;;;;11.07;10.02;;;;;;;1.48;100.00;97004.50;5059182;28;20028;-68
2023/02/06 01:35:22;;;;;;;12.15;10.85;;;;;;;1.53;100.00;96996.56;5058390;28;20052;-67
2023/02/06 01:37:47;;;;;;;13.88;11.70;;;;;;;1.63;99.42;96995.31;5060162;28;20029;-67
2023/02/06 01:40:15;;;;;;;12.32;10.38;;;;;;;1.63;99.34;96992.72;5062004;28;20039;-67
2023/02/06 01:42:40;;;;;;;12.38;9.80;;;;;;;1.89;97.33;96996.16;5057601;28;20111;-67
2023/02/06 01:45:24;;;;;;;12.55;11.15;;;;;;;1.73;98.87;96995.84;5062901;28;20456;-67
2023/02/06 01:47:52;;;;;;;12.45;11.15;;;;;;;1.70;99.34;96999.41;5066473;28;20029;-67
2023/02/06 01:50:18;;;;;;;16.85;14.02;;;;;;;1.59;100.00;96995.50;5063637;28;20076;-69
2023/02/06 01:52:43;;;;;;;13.18;11.32;;;;;;;1.62;100.00;97001.41;5055654;28;20486;-64
2023/02/06 01:55:09;;;;;;;11.95;10.68;;;;;;;1.56;100.00;97002.50;5075855;28;20086;-64
2023/02/06 01:57:34;;;;;;;10.05;9.05;;;;;;;1.55;100.00;97000.81;5059746;28;20031;-65
2023/02/06 02:00:04;;;;;;;9.35;8.52;;;;;;;1.57;100.00;96998.13;5056534;28;20103;-65
2023/02/06 02:02:31;;;;;;;12.48;9.80;;;;;;;1.62;100.00;96996.22;5066493;28;20097;-65
2023/02/06 02:05:00;;;;;;;11.85;10.80;;;;;;;1.66;100.00;96982.25;5055767;28;20028;-65
2023/02/06 02:07:30;;;;;;;10.45;9.45;;;;;;;1.67;100.00;96985.69;5054978;28;20032;-65
2023/02/06 02:09:56;;;;;;;11.18;10.18;;;;;;;1.63;100.00;96981.50;5062558;28;20032;-69
2023/02/06 02:12:21;;;;;;;13.07;11.60;;;;;;;1.61;100.00;96970.31;5062840;28;20082;-66
2023/02/06 02:14:50;;;;;;;9.88;8.98;;;;;;;1.57;100.00;96979.97;5065872;28;20101;-65
2023/02/06 02:17:43;;;;;;;10.25;9.25;;;;;;;1.55;100.00;96977.44;5064096;28;20087;-64
2023/02/06 02:20:32;;;;;;;12.32;11.02;;;;;;;1.59;100.00;96965.19;5055406;28;20064;-65
2023/02/06 02:23:01;;;;;;;11.02;9.25;;;;;;;1.60;100.00;96963.44;5058985;28;20047;-64
2023/02/06 02:25:56;;;;;;;9.65;8.68;;;;;;;1.60;100.00;96972.06;5062480;28;20074;-63
2023/02/06 02:29:03;;;;;;;9.85;8.95;;;;;;;1.60;100.00;96964.28;5064554;28;20111;-61
2023/02/06 02:31:56;;;;;;;9.15;8.35;;;;;;;1.63;100.00;96966.75;5063290;28;20008;-70
2023/02/06 02:34:46;;;;;;;15.20;10.43;;;;;;;1.62;99.41;96961.63;5059038;28;20060;-70
2023/02/06 02:37:32;;;;;;;14.63;10.65;;;;;;;1.63;100.00;96965.94;5060629;28;20444;-69
2023/02/06 02:40:18;;;;;;;7.88;7.07;;;;;;;1.54;100.00;96969.69;5065519;28;20055;-69
2023/02/06 02:43:02;;;;;;;;;;;;;;;1.48;100.00;96962.13;5057146;28;20663;-69
2023/02/06 02:45:40;;;;;;;8.00;7.38;;;;;;;1.54;100.00;96961.91;5062003;28;20401;-69
2023/02/06 02:48:10;;;;;;;7.68;7.07;;;;;;;1.59;100.00;96967.78;5065903;28;20569;-61
2023/02/06 02:50:36;;;;;;;7.70;7.05;;;;;;;1.57;100.00;96973.03;5051665;28;20104;-67
2023/02/06 02:53:02;;;;;;;8.85;6.63;;;;;;;1.57;100.00;96972.19;5051036;28;20033;-67
2023/02/06 02:55:28;;;;;;;8.50;7.80;;;;;;;1.66;100.00;96977.06;5054811;28;20624;-67
2023/02/06 02:58:00;;;;;;;9.82;8.82;;;;;;;1.70;99.83;96968.25;5062066;28;20112;-67
2023/02/06 03:00:25;;;;;;;10.18;8.55;;;;;;;1.70;99.91;96964.78;5065827;28;20020;-67
2023/02/06 03:02:53;;;;;;;20.77;14.25;;;;;;;1.75;99.77;96969.81;5061273;28;20036;-67
2023/02/06 03:05:23;;;;;;;13.20;10.13;;;;;;;1.79;99.68;96976.59;5056969;28;20028;-67
2023/02/06 03:08:00;;;;;;;7.25;6.65;;;;;;;1.75;99.83;96960.28;5062154;28;20100;-67
2023/02/06 03:10:35;;;;;;;6.55;5.95;;;;;;;1.78;99.51;96969.72;5056200;28;20025;-65
2023/02/06 03:13:06;;;;;;;16.52;11.13;;;;;;;1.80;99.26;96978.28;5066144;28;20035;-65
2023/02/06 03:15:45;;;;;;;10.30;8.85;;;;;;;1.80;99.57;96968.75;5061494;28;20064;-65
2023/02/06 03:18:26;;;;;;;8.07;7.28;;;;;;;1.90;98.73;96971.88;5058312;28;20107;-65
2023/02/06 03:20:52;;;;;;;9.80;8.25;;;;;;;1.95;97.90;96961.28;5057234;28;20035;-65
2023/02/06 03:23:23;;;;;;;11.25;10.15;;;;;;;1.92;98.96;96969.19;5052781;28;20029;-65
2023/02/06 03:25:53;;;;;;;9.55;8.65;;;;;;;2.20;97.30;96968.16;5059415;28;20052;-71
2023/02/06 03:28:26;;;;;;;11.45;9.77;;;;;;;1.84;98.39;96959.94;5061169;28;20059;-68
2023/02/06 03:30:54;;;;;;;11.07;9.60;;;;;;;1.69;99.63;96961.38;5057421;28;20432;-69
2023/02/06 03:33:25;;;;;;;13.80;9.95;;;;;;;1.68;100.00;96964.88;5057849;28;22189;-70
2023/02/06 03:35:51;;;;;;;12.10;9.82;;;;;;;1.71;100.00;96974.28;5069289;28;20035;-69
2023/02/06 03:38:17;;;;;;;11.73;10.50;;;;;;;1.72;100.00;96970.78;5075763;28;20020;-69
2023/02/06 03:40:47;;;;;;;11.57;10.30;;;;;;;1.74;100.00;96978.53;5075891;28;20035;-69
2023/02/06 03:43:17;;;;;;;11.30;9.68;;;;;;;1.73;100.00;96985.44;5070313;28;20074;-69
2023/02/06 03:45:47;;;;;;;11.57;10.32;;;;;;;1.76;100.00;96987.09;5073567;28;20055;-67
2023/02/06 03:48:20;;;;;;;12.77;10.23;;;;;;;1.75;100.00;96993.19;5066568;28;20107;-61
2023/02/06 03:50:49;;;;;;;14.93;12.50;;;;;;;1.75;100.00;96996.63;5096373;28;20553;-61
2023/02/06 03:53:17;;;;;;;18.50;12.15;;;;;;;1.78;100.00;97000.88;5071820;28;20032;-61
2023/02/06 03:55:46;;;;;;;35.50;22.58;;;;;;;1.76;100.00;96990.53;5072064;28;20086;-60
2023/02/06 03:58:13;;;;;;;38.80;23.75;;;;;;;1.79;99.99;96981.78;5064051;28;20055;-61
2023/02/06 04:00:41;;;;;;;20.65;15.02;;;;;;;1.79;100.00;96986.97;5054363;28;20025;-61
2023/02/06 04:03:09;;;;;;;17.13;11.85;;;;;;;1.82;99.26;96995.53;5059931;28;20127;-61
2023/02/06 04:05:34;;;;;;;11.25;10.05;;;;;;;1.83;99.47;96991.16;5066722;28;20025;-68
2023/02/06 04:08:00;;;;;;;15.43;9.98;;;;;;;1.85;99.06;96997.13;5057769;28;20029;-61
2023/02/06 04:10:25;;;;;;;16.48;11.70;;;;;;;1.90;98.97;96997.84;5058349;28;20394;-60
2023/02/06 04:12:50;;;;;;;18.45;12.48;;;;;;;1.87;99.01;97003.13;5060380;28;20059;-61
2023/02/06 04:15:16;;;;;;;10.38;8.23;;;;;;;1.87;99.39;97005.72;5053863;28;20116;-64
2023/02/06 04:17:41;;;;;;;7.60;7.00;;;;;;;1.88;100.00;96991.00;5051718;28;20025;-61
2023/02/06 04:20:07;;;;;;;6.25;5.75;;;;;;;1.94;99.50;97001.16;5054793;28;20108;-61
2023/02/06 04:22:33;;;;;;;6.45;5.95;;;;;;;1.96;98.58;97000.19;5059746;28;20371;-61
2023/02/06 04:24:59;;;;;;;7.20;6.55;;;;;;;1.99;99.51;97004.44;5059520;28;20059;-68
2023/02/06 04:27:24;;;;;;;7.70;7.10;;;;;;;1.93;99.56;97002.06;5058490;28;20025;-61
2023/02/06 04:29:50;;;;;;;7.32;6.80;;;;;;;1.86;100.00;97004.03;5057527;28;20056;-61
2023/02/06 04:32:15;;;;;;;8.38;7.55;;;;;;;1.85;100.00;97000.59;5060879;28;20380;-61
2023/02/06 04:34:40;;;;;;;11.57;7.45;;;;;;;1.92;100.00;97002.97;5059547;28;20659;-61
2023/02/06 04:37:06;;;;;;;7.28;6.78;;;;;;;1.87;100.00;97008.31;5059318;28;20097;-61
2023/02/06 04:39:32;;;;;;;7.32;6.72;;;;;;;1.89;100.00;97005.69;5054583;28;20025;-61
2023/02/06 04:41:58;;;;;;;40.42;21.20;;;;;;;1.81;100.00;96999.03;5065949;28;20486;-60
2023/02/06 04:44:24;;;;;;;21.60;14.25;;;;;;;1.79;99.29;96998.22;5065878;28;20033;-68
2023/02/06 04:46:49;;;;;;;13.48;10.57;;;;;;;1.85;99.42;97004.94;5068319;28;20036;-68
2023/02/06 04:49:15;;;;;;;13.27;9.63;;;;;;;1.87;98.36;97005.72;5065273;28;20586;-68
2023/02/06 04:51:42;;;;;;;16.58;11.70;;;;;;;1.89;98.87;97013.47;5060472;28;20107;-68
2023/02/06 04:54:08;;;;;;;8.90;7.97;;;;;;;1.93;98.63;97015.91;5067000;28;20032;-68
2023/02/06 04:56:33;;;;;;;7.35;6.85;;;;;;;1.86;99.30;97030.84;5057434;28;20542;-68
2023/02/06 04:58:59;;;;;;;7.93;7.32;;;;;;;1.83;100.00;97035.31;5055443;28;20029;-68
2023/02/06 05:01:24;;;;;;;7.13;6.63;;;;;;;1.83;99.51;97041.34;5061658;28;20026;-72
2023/02/06 05:03:50;;;;;;;7.43;6.78;;;;;;;1.88;99.49;97046.41;5070134;28;20035;-69
2023/02/06 05:06:16;;;;;;;7.25;6.75;;;;;;;1.95;98.37;97034.88;5060436;28;20087;-71
2023/02/06 05:08:42;;;;;;;7.03;6.53;;;;;;;1.92;98.96;97045.38;5061418;28;20029;-72
2023/02/06 05:11:07;;;;;;;8.35;7.75;;;;;;;1.91;98.29;97048.88;5060746;28;20454;-71
2023/02/06 05:13:33;;;;;;;7.18;6.68;;;;;;;1.95;97.74;97047.00;5062834;28;20041;-71
2023/02/06 05:16:06;;;;;;;6.95;6.35;;;;;;;1.94;98.20;97053.97;5067809;28;20514;-71
2023/02/06 05:18:31;;;;;;;8.32;7.63;;;;;;;2.06;97.53;97046.63;5066988;28;20044;-70
2023/02/06 05:20:56;;;;;;;7.55;7.05;;;;;;;2.17;96.70;97043.63;5068244;28;20574;-68
2023/02/06 05:23:22;;;;;;;7.00;6.38;;;;;;;2.03;97.13;97036.34;5055181;28;20098;-68
2023/02/06 05:25:47;;;;;;;7.05;6.40;;;;;;;1.97;98.39;97037.41;5067358;28;20066;-61
2023/02/06 05:28:12;;;;;;;7.13;6.53;;;;;;;2.07;97.43;97043.09;5056776;28;20021;-62
2023/02/06 05:30:38;;;;;;;7.78;6.60;;;;;;;2.11;97.24;97037.75;5058759;28;20038;-61
2023/02/06 05:33:03;;;;;;;7.00;6.50;;;;;;;1.96;98.33;97049.56;5056547;28;20059;-60
2023/02/06 05:35:28;;;;;;;15.23;13.35;;;;;;;1.93;99.54;97052.28;5061795;28;20127;-61
2023/02/06 05:37:54;;;;;;;12.55;10.13;;;;;;;1.83;99.75;97051.75;5068681;28;20113;-61
2023/02/06 05:40:19;;;;;;;11.30;10.02;;;;;;;1.79;99.54;97051.91;5064964;28;20728;-67
2023/02/06 05:42:45;;;;;;;10.20;9.15;;;;;;;1.82;99.72;97057.84;5068046;28;20583;-60
2023/02/06 05:45:10;;;;;;;8.98;7.90;;;;;;;1.82;99.69;97050.06;5062447;28;20486;-68
2023/02/06 05:47:35;;;;;;;16.17;13.13;;;;;;;1.79;99.72;97044.97;5068509;28;20494;-69
2023/02/06 05:50:01;;;;;;;50.65;29.95;;;;;;;1.79;99.91;97044.13;5060331;28;20115;-68
2023/02/06 05:52:26;;;;;;;10.90;9.63;;;;;;;1.90;99.62;97041.13;5066252;28;20071;-69
2023/02/06 05:54:51;;;;;;;7.65;7.15;;;;;;;1.94;98.88;97047.91;5053688;28;20024;-69
2023/02/06 05:57:17;;;;;;;7.57;6.88;;;;;;;1.85;99.38;97054.28;5057617;28;20028;-69
2023/02/06 05:59:42;;;;;;;8.15;7.45;;;;;;;1.86;99.79;97049.03;5053556;28;20020;-68
2023/02/06 06:02:08;;;;;;;8.05;7.45;;;;;;;1.83;98.82;97056.09;5068644;28;20025;-68
2023/02/06 06:04:33;;;;;;;7.15;6.55;;;;;;;1.86;98.68;97059.44;5053239;28;20025;-61
2023/02/06 06:06:59;;;;;;;8.05;7.38;;;;;;;1.81;100.00;97063.09;5053392;28;20031;-61
2023/02/06 06:09:24;;;;;;;7.28;6.78;;;;;;;1.83;99.31;97062.13;5051859;28;20179;-61
2023/02/06 06:11:50;;;;;;;7.63;7.03;;;;;;;1.77;100.00;97057.16;5052937;28;20032;-62
2023/02/06 06:14:16;;;;;;;7.65;7.10;;;;;;;1.80;99.39;97051.00;5052017;28;20025;-60
2023/02/06 06:16:41;;;;;;;8.13;7.45;;;;;;;1.82;100.00;97050.06;5053529;28;20055;-61
2023/02/06 06:19:07;;;;;;;7.95;6.90;;;;;;;1.82;100.00;97050.06;5056649;28;20039;-61
2023/02/06 06:21:33;;;;;;;8.57;7.78;;;;;;;1.75;100.00;97047.72;5066328;28;20024;-67
2023/02/06 06:23:59;;;;;;;9.20;8.40;;;;;;;1.69;100.00;97043.59;5054873;28;20081;-68
2023/02/06 06:26:24;;;;;;;8.75;8.05;;;;;;;1.73;99.19;97057.31;5059468;28;20028;-68
2023/02/06 06:28:50;;;;;;;9.25;8.35;;;;;;;1.51;100.00;97058.91;5055060;28;20025;-68
2023/02/06 06:31:15;;;;;;;48.10;29.30;;;;;;;1.41;100.00;97068.75;5057903;28;20546;-68
2023/02/06 06:33:41;;;;;;;33.03;22.42;;;;;;;1.31;100.00;97069.97;5068174;28;20041;-67
2023/02/06 06:36:08;;;;;;;9.68;8.77;;;;;;;1.32;100.00;97066.47;5068815;28;20108;-67
2023/02/06 06:38:34;;;;;;;15.85;12.57;;;;;;;1.28;100.00;97070.06;5067755;28;20012;-67
2023/02/06 06:40:59;;;;;;;92.03;49.00;;;;;;;1.28;100.00;97067.47;5068837;28;20077;-67
2023/02/06 06:43:25;;;;;;;27.92;18.65;;;;;;;1.30;100.00;97057.88;5067071;28;20041;-70
2023/02/06 06:45:50;;;;;;;14.20;12.70;;;;;;;1.21;100.00;97064.22;5069472;28;20024;-70
2023/02/06 06:48:15;;;;;;;10.93;9.98;;;;;;;1.12;100.00;97067.97;5057513;28;20048;-70
2023/02/06 06:50:41;;;;;;;10.40;9.50;;;;;;;1.12;100.00;97075.75;5049766;28;20143;-70
2023/02/06 06:53:06;;;;;;;33.40;23.60;;;;;;;1.13;100.00;97072.25;5052378;28;20058;-70
2023/02/06 06:55:32;;;;;;;58.05;34.83;;;;;;;1.13;100.00;97066.22;5061752;28;20028;-70
2023/02/06 06:57:57;;;;;;;22.60;17.23;;;;;;;1.12;100.00;97075.75;5054814;28;20029;-67
2023/02/06 07:00:23;;;;;;;10.75;9.75;;;;;;;1.10;100.00;97066.31;5073296;28;20028;-68
2023/02/06 07:02:48;;;;;;;10.25;9.38;;;;;;;1.07;100.00;97066.41;5058611;28;20021;-61
2023/02/06 07:05:13;;;;;;;10.55;9.65;;;;;;;1.08;100.00;97081.94;5058052;28;20404;-61
2023/02/06 07:07:39;;;;;;;10.90;9.80;;;;;;;1.08;100.00;97084.53;5049167;28;20525;-61
2023/02/06 07:10:05;;;;;;;9.85;8.93;;;;;;;1.07;100.00;97080.25;5049452;28;20032;-61
2023/02/06 07:12:31;;;;;;;10.00;9.20;;;;;;;1.12;100.00;97091.31;5065208;28;20406;-62
2023/02/06 07:14:56;;;;;;;9.60;8.82;;;;;;;1.17;100.00;97091.16;5052353;28;20031;-61
2023/02/06 07:17:21;;;;;;;11.32;10.32;;;;;;;1.25;100.00;97090.94;5053729;28;20025;-61
2023/02/06 07:19:49;;;;;;;11.00;10.00;;;;;;;1.23;100.00;97082.34;5050037;28;20029;-62
2023/02/06 07:22:14;;;;;;;15.23;13.73;;;;;;;1.23;100.00;97085.78;5052810;28;20087;-61
2023/02/06 07:24:40;;;;;;;12.10;10.68;;;;;;;1.24;100.00;97084.03;5061884;28;20107;-61
2023/02/06 07:27:06;;;;;;;12.15;10.98;;;;;;;1.19;100.00;97080.72;5057558;28;20082;-61
2023/02/06 07:29:32;;;;;;;13.95;12.50;;;;;;;1.19;100.00;97086.78;5068328;28;20072;-60
2023/02/06 07:31:57;;;;;;;13.25;11.95;;;;;;;1.22;100.00;97086.69;5057630;28;20608;-60
2023/02/06 07:34:23;;;;;;;13.30;12.05;;;;;;;1.21;100.00;97091.91;5059583;28;20044;-61
2023/02/06 07:36:48;;;;;;;13.23;12.02;;;;;;;1.23;100.00;97090.97;5065110;28;20032;-64
2023/02/06 07:39:13;;;;;;;13.55;12.32;;;;;;;1.31;100.00;97084.66;5069105;28;20021;-60
2023/02/06 07:41:39;;;;;;;13.65;12.30;;;;;;;1.27;100.00;97087.38;5066476;28;20060;-60
2023/02/06 07:44:04;;;;;;;15.13;11.25;;;;;;;1.25;100.00;97093.53;5066641;28;20021;-61
2023/02/06 07:46:31;;;;;;;14.30;12.93;;;;;;;1.26;100.00;97088.25;5062687;28;20553;-60
2023/02/06 07:48:57;;;;;;;13.95;12.63;;;;;;;1.32;100.00;97089.81;5066499;28;20032;-62
2023/02/06 07:51:22;;;;;;;13.00;11.77;;;;;;;1.38;100.00;97092.19;5065109;28;20025;-62
2023/02/06 07:53:47;;;;;;;11.95;10.75;;;;;;;1.43;100.00;97094.66;5065211;28;20486;-62
2023/02/06 07:56:19;;;;;;;13.32;11.77;;;;;;;1.43;100.00;97095.47;5066636;28;20222;-66
2023/02/06 07:58:49;;;;;;;14.02;12.70;;;;;;;1.46;100.00;97091.94;5063454;28;20082;-73
2023/02/06 08:01:14;;;;;;;17.42;14.32;;;;;;;1.46;100.00;97088.53;5068280;28;20032;-74
2023/02/06 08:03:39;;;;;;;15.13;13.75;;;;;;;1.52;100.00;97096.94;5061545;28;20087;-72
2023/02/06 08:06:10;;;;;;;21.48;19.52;;;;;;;1.56;100.00;97085.56;5068151;28;20100;-74
2023/02/06 08:08:35;;;;;;;14.82;13.52;;;;;;;1.57;100.00;97089.00;5070625;28;20401;-75
2023/02/06 08:11:06;;;;;;;13.90;12.57;;;;;;;1.54;100.00;97089.94;5059244;28;20029;-74
2023/02/06 08:13:31;;;;;;;11.20;10.23;;;;;;;1.63;100.00;97090.53;5057573;28;20021;-75
2023/02/06 08:15:57;;;;;;;11.48;10.48;;;;;;;1.73;100.00;97080.69;5058680;28;20445;-65
2023/02/06 08:18:22;;;;;;;12.82;11.52;;;;;;;1.68;100.00;97092.09;5075168;28;20100;-61
2023/02/06 08:20:47;;;;;;;13.18;11.98;;;;;;;1.71;100.00;97091.97;5065051;28;20049;-62
2023/02/06 08:23:13;;;;;;;12.43;11.18;;;;;;;1.79;100.00;97086.53;5072066;28;20068;-61
2023/02/06 08:25:38;;;;;;;11.80;10.70;;;;;;;1.84;100.00;97083.75;5064378;28;20555;-61
2023/02/06 08:28:03;;;;;;;12.38;11.07;;;;;;;1.91;100.00;97074.00;5067826;28;20086;-61
2023/02/06 08:30:31;;;;;;;11.73;10.63;;;;;;;1.94;99.90;97073.88;5067010;28;20070;-61
2023/02/06 08:32:56;;;;;;;13.27;12.07;;;;;;;2.02;99.11;97076.22;5062951;28;20122;-61
2023/02/06 08:35:21;;;;;;;11.50;10.40;;;;;;;2.09;97.60;97082.88;5058971;28;20080;-71
2023/02/06 08:37:47;;;;;;;12.10;11.00;;;;;;;2.06;97.37;97083.84;5053305;28;20028;-67
2023/02/06 08:40:12;;;;;;;15.15;12.38;;;;;;;2.14;97.49;97081.81;5064177;28;20025;-64
2023/02/06 08:42:38;;;;;;;11.55;10.32;;;;;;;2.20;96.62;97092.88;5060783;28;20103;-63
2023/02/06 08:45:03;;;;;;;11.25;10.15;;;;;;;2.20;95.78;97098.94;5054770;28;20018;-64
2023/02/06 08:47:29;;;;;;;27.20;20.65;;;;;;;2.21;95.30;97100.63;5055928;28;20493;-64
2023/02/06 08:49:55;;;;;;;37.78;24.95;;;;;;;2.27;94.63;97105.59;5052035;28;20024;-64
2023/02/06 08:52:21;;;;;;;31.02;21.05;;;;;;;2.32;94.14;97107.19;5055312;28;20032;-63
2023/02/06 08:54:49;;;;;;;20.65;15.20;;;;;;;2.32;93.02;97110.63;5052697;28;20103;-64
2023/02/06 08:57:15;;;;;;;31.27;21.63;;;;;;;2.36;93.21;97117.41;5059760;28;20024;-62
2023/02/06 08:59:40;;;;;;;12.63;9.70;;;;;;;2.47;93.42;97119.63;5054228;28;20035;-62
2023/02/06 09:02:05;;;;;;;9.25;8.35;;;;;;;2.39;92.88;97117.28;5067269;28;20111;-63
2023/02/06 09:04:31;;;;;;;13.52;11.35;;;;;;;2.40;93.48;97115.56;5066863;28;20649;-63
2023/02/06 09:06:56;;;;;;;13.00;11.27;;;;;;;2.42;94.41;97122.38;5069465;28;20538;-63
2023/02/06 09:09:22;;;;;;;9.18;8.38;;;;;;;2.56;93.51;97127.09;5059963;28;20025;-62
2023/02/06 09:11:47;;;;;;;9.30;8.40;;;;;;;2.59;93.67;97123.50;5060860;28;20502;-61
2023/02/06 09:14:15;;;;;;;26.13;21.52;;;;;;;2.49;93.74;97128.22;5059090;28;20029;-61
2023/02/06 09:16:41;;;;;;;11.95;10.68;;;;;;;2.43;94.02;97125.84;5066354;28;20025;-69
2023/02/06 09:19:07;;;;;;;9.70;8.80;;;;;;;2.52;92.93;97130.69;5054943;28;20081;-70
2023/02/06 09:21:34;;;;;;;9.10;8.20;;;;;;;2.55;93.32;97128.00;5051027;28;20033;-70
2023/02/06 09:24:03;;;;;;;9.27;8.48;;;;;;;2.56;93.86;97131.44;5052534;28;20017;-69
2023/02/06 09:26:32;;;;;;;10.25;9.25;;;;;;;2.59;94.29;97146.91;5057797;28;20390;-70
2023/02/06 09:29:00;;;;;;;12.55;8.98;;;;;;;2.62;93.88;97144.19;5062263;28;20032;-69
2023/02/06 09:31:29;;;;;;;9.25;8.35;;;;;;;2.62;94.09;97139.00;5055084;28;20566;-60
2023/02/06 09:33:55;;;;;;;18.25;12.95;;;;;;;2.61;92.15;97142.50;5067988;28;20040;-60
2023/02/06 09:36:20;;;;;;;25.55;17.85;;;;;;;2.61;91.95;97150.31;5069858;28;20376;-69
2023/02/06 09:38:56;;;;;;;22.75;16.20;;;;;;;2.54;92.30;97157.50;5062740;28;20020;-70
2023/02/06 09:41:32;;;;;;;20.80;16.50;;;;;;;2.51;93.31;97159.38;5063749;28;20025;-69
2023/02/06 09:44:10;;;;;;;21.40;16.63;;;;;;;2.47;94.31;97157.78;5054835;28;20100;-69
2023/02/06 09:46:47;;;;;;;20.70;17.00;;;;;;;2.51;93.73;97161.97;5065674;28;20033;-69
2023/02/06 09:49:28;;;;;;;17.23;13.73;;;;;;;2.52;93.89;97161.06;5056561;28;20024;-69
2023/02/06 09:51:59;;;;;;;10.00;9.10;;;;;;;2.54;92.19;97162.72;5060723;28;20406;-64
2023/02/06 09:54:44;;;;;;;9.60;8.70;;;;;;;2.57;91.32;97162.59;5052145;28;20025;-61
2023/02/06 09:57:15;;;;;;;9.35;8.55;;;;;;;2.65;89.64;97159.72;5051464;28;20091;-61
2023/02/06 09:59:46;;;;;;;10.00;8.40;;;;;;;2.81;89.18;97166.91;5049861;28;20027;-62
2023/02/06 10:02:29;;;;;;;8.32;7.35;;;;;;;2.76;87.74;97164.47;5049953;28;20051;-61
2023/02/06 10:05:16;;;;;;;10.65;9.75;;;;;;;2.75;87.53;97165.38;5054635;28;20036;-62
2023/02/06 10:07:44;;;;;;;23.17;14.73;;;;;;;2.83;87.98;97163.38;5053376;28;20025;-62
2023/02/06 10:10:42;;;;;;;18.65;15.07;;;;;;;2.91;88.19;97160.47;5053084;28;20028;-68
2023/02/06 10:13:48;;;;;;;15.05;11.80;;;;;;;2.89;86.42;97145.81;5048390;28;20035;-64
2023/02/06 10:16:48;;;;;;;9.23;8.27;;;;;;;2.89;85.68;97145.81;5050385;28;20024;-64
2023/02/06 10:19:21;;;;;;;10.43;9.30;;;;;;;2.92;86.44;97143.97;5061677;28;20055;-64
2023/02/06 10:22:03;;;;;;;9.00;8.10;;;;;;;3.03;86.00;97140.94;5058483;28;20103;-65
2023/02/06 10:24:51;;;;;;;8.90;8.00;;;;;;;2.99;87.80;97129.81;5050046;28;20028;-65
2023/02/06 10:27:18;;;;;;;9.82;9.02;;;;;;;3.15;86.72;97134.41;5051897;28;20032;-65
2023/02/06 10:29:45;;;;;;;9.48;8.68;;;;;;;3.18;86.19;97126.47;5050094;28;20052;-68
2023/02/06 10:32:48;;;;;;;8.70;8.02;;;;;;;3.26;85.69;97126.19;5054385;28;20021;-68
2023/02/06 10:35:24;;;;;;;9.38;8.57;;;;;;;3.26;84.74;97134.00;5052047;28;20164;-60
2023/02/06 10:38:23;;;;;;;8.65;7.85;;;;;;;3.42;83.93;97116.81;5048273;28;20039;-60
2023/02/06 10:41:03;;;;;;;7.82;6.88;;;;;;;3.44;83.58;97121.97;5049317;28;20029;-60
2023/02/06 10:43:51;;;;;;;8.40;7.68;;;;;;;3.44;83.25;97116.78;5046100;28;20043;-60
2023/02/06 10:46:40;;;;;;;7.63;6.93;;;;;;;3.43;83.26;97115.06;5046252;28;20017;-60
2023/02/06 10:49:24;;;;;;;7.60;6.90;;;;;;;3.44;83.50;97111.56;5046815;28;20032;-65
2023/02/06 10:51:56;;;;;;;8.57;7.78;;;;;;;3.48;84.16;97107.09;5064210;28;20044;-68
2023/02/06 10:54:22;;;;;;;7.18;6.57;;;;;;;3.50;84.69;97118.28;5046249;28;20068;-67
2023/02/06 10:56:50;;;;;;;6.90;6.40;;;;;;;3.63;82.72;97111.63;5047713;28;20064;-69
2023/02/06 10:59:16;;;;;;;6.60;6.10;;;;;;;3.61;82.76;97108.25;5045402;28;20028;-69
2023/02/06 11:01:43;;;;;;;6.35;5.95;;;;;;;3.81;81.73;97110.03;5047941;28;20487;-70
2023/02/06 11:04:20;;;;;;;7.00;6.50;;;;;;;3.77;82.54;97102.41;5048524;28;20420;-68
2023/02/06 11:06:45;;;;;;;6.68;6.20;;;;;;;3.82;80.85;97101.31;5063449;28;20035;-70
2023/02/06 11:09:11;;;;;;;7.32;6.80;;;;;;;3.79;79.64;97100.59;5065520;28;20390;-65
2023/02/06 11:11:40;;;;;;;6.32;5.93;;;;;;;3.89;79.66;97094.09;5063696;28;20078;-67
2023/02/06 11:14:14;;;;;;;8.18;6.15;;;;;;;3.82;79.80;97100.44;5065723;28;20085;-66
2023/02/06 11:16:41;;;;;;;6.78;6.28;;;;;;;3.83;79.03;97099.53;5077526;28;20383;-67
2023/02/06 11:19:34;;;;;;;8.68;7.88;;;;;;;3.89;79.30;97094.09;5060664;28;20024;-67
2023/02/06 11:22:03;;;;;;;8.77;7.35;;;;;;;3.99;79.42;97082.34;5060614;28;20051;-66
2023/02/06 11:24:28;;;;;;;7.28;6.68;;;;;;;4.04;78.97;97083.88;5061015;28;20047;-67
2023/02/06 11:26:59;;;;;;;16.45;14.68;;;;;;;4.15;78.97;97081.66;5062236;28;20486;-64
2023/02/06 11:29:35;;;;;;;9.45;8.55;;;;;;;4.17;78.51;97074.63;5065273;28;20032;-60
2023/02/06 11:32:04;;;;;;;10.75;9.85;;;;;;;4.26;77.96;97073.38;5061560;28;20083;-66
2023/02/06 11:34:41;;;;;;;8.90;8.20;;;;;;;4.28;77.25;97074.97;5063250;28;20076;-66
2023/02/06 11:37:28;;;;;;;8.48;7.72;;;;;;;4.22;78.21;97077.88;5060135;28;20051;-65
2023/02/06 11:40:12;;;;;;;8.32;7.53;;;;;;;4.33;79.56;97076.56;5058386;28;20513;-66